createdAt,value
2022-12-01T00:01:59.503Z,46.40
2022-12-01T00:04:26.087Z,35.13
2022-12-01T00:06:53.892Z,27.02
2022-12-01T00:09:20.614Z,35.25
2022-12-01T00:11:47.388Z,33.80
2022-12-01T00:14:13.934Z,25.83
2022-12-01T00:16:40.579Z,27.67
2022-12-01T00:19:07.139Z,38.97
2022-12-01T00:21:33.612Z,31.13
2022-12-01T00:24:01.737Z,35.72
2022-12-01T00:26:28.339Z,39.60
2022-12-01T00:28:56.823Z,54.42
2022-12-01T00:31:23.967Z,49.75
2022-12-01T00:33:50.692Z,45.75
2022-12-01T00:36:17.596Z,55.83
2022-12-01T00:38:44.078Z,33.20
2022-12-01T00:41:12.144Z,27.10
2022-12-01T00:43:38.753Z,33.95
2022-12-01T00:46:05.572Z,34.63
2022-12-01T00:48:32.121Z,34.00
2022-12-01T00:50:58.619Z,30.27
2022-12-01T00:53:25.118Z,30.50
2022-12-01T00:55:51.701Z,28.30
2022-12-01T00:58:19.561Z,34.35
2022-12-01T01:00:46.025Z,35.65
2022-12-01T01:03:12.615Z,43.58
2022-12-01T01:05:40.780Z,38.05
2022-12-01T01:08:08.227Z,58.40
2022-12-01T01:10:38.136Z,40.92
2022-12-01T01:13:04.658Z,41.85
2022-12-01T01:15:32.582Z,37.47
2022-12-01T01:17:59.105Z,35.47
2022-12-01T01:20:25.609Z,30.27
2022-12-01T01:22:52.121Z,29.13
2022-12-01T01:25:18.677Z,40.65
2022-12-01T01:27:45.161Z,37.92
2022-12-01T01:30:12.715Z,49.65
2022-12-01T01:32:40.542Z,57.90
2022-12-01T01:35:07.770Z,24.88
2022-12-01T01:37:34.259Z,39.30
2022-12-01T01:40:00.747Z,34.80
2022-12-01T01:42:27.298Z,45.40
2022-12-01T01:44:56.093Z,49.65
2022-12-01T01:47:26.626Z,47.28
2022-12-01T01:49:56.351Z,37.85
2022-12-01T01:52:23.948Z,39.25
2022-12-01T01:54:53.929Z,47.95
2022-12-01T01:57:25.969Z,45.28
2022-12-01T01:59:57.009Z,41.85
2022-12-01T02:02:23.521Z,47.13
2022-12-01T02:04:55.382Z,59.22
2022-12-01T02:07:23.288Z,48.25
2022-12-01T02:09:50.067Z,52.22
2022-12-01T02:12:30.595Z,35.58
2022-12-01T02:15:18.485Z,43.45
2022-12-01T02:17:50.802Z,41.00
2022-12-01T02:20:42.778Z,40.25
2022-12-01T02:23:47.343Z,36.88
2022-12-01T02:26:36.259Z,28.98
2022-12-01T02:29:34.100Z,37.80
2022-12-01T02:32:10.491Z,29.05
2022-12-01T02:34:43.557Z,44.42
2022-12-01T02:37:17.397Z,44.40
2022-12-01T02:39:52.816Z,41.42
2022-12-01T02:42:25.050Z,35.13
2022-12-01T02:44:52.227Z,37.22
2022-12-01T02:47:20.758Z,44.03
2022-12-01T02:49:50.537Z,45.97
2022-12-01T02:52:18.505Z,41.38
2022-12-01T02:54:47.518Z,33.38
2022-12-01T02:57:15.665Z,40.65
2022-12-01T02:59:45.475Z,45.95
2022-12-01T03:02:18.112Z,41.42
2022-12-01T03:04:54.950Z,50.58
2022-12-01T03:07:51.419Z,43.15
2022-12-01T03:10:24.591Z,49.20
2022-12-01T03:13:01.805Z,49.95
2022-12-01T03:18:06.807Z,41.83
2022-12-01T03:20:40.294Z,38.80
2022-12-01T03:23:10.352Z,48.55
2022-12-01T03:25:39.750Z,53.67
2022-12-01T03:28:23.819Z,55.47
2022-12-01T03:30:55.113Z,50.95
2022-12-01T03:33:26.885Z,44.63
2022-12-01T03:35:59.614Z,52.47
2022-12-01T03:38:28.410Z,45.05
2022-12-01T03:40:59.815Z,49.78
2022-12-01T03:43:30.625Z,45.72
2022-12-01T03:46:03.245Z,44.45
2022-12-01T03:48:31.093Z,56.17
2022-12-01T03:51:05.630Z,56.58
2022-12-01T03:53:39.973Z,39.53
2022-12-01T03:56:07.860Z,62.72
2022-12-01T03:58:38.308Z,48.00
2022-12-01T04:01:05.457Z,52.60
2022-12-01T04:03:31.957Z,48.17
2022-12-01T04:06:00.814Z,47.13
2022-12-01T04:08:27.328Z,46.65
2022-12-01T04:10:53.814Z,46.13
2022-12-01T04:13:20.317Z,43.45
2022-12-01T04:15:46.849Z,44.22
2022-12-01T04:18:13.410Z,43.53
2022-12-01T04:20:39.906Z,60.17
2022-12-01T04:23:07.730Z,51.67
2022-12-01T04:25:34.218Z,43.72
2022-12-01T04:28:00.693Z,64.68
2022-12-01T04:30:27.213Z,42.80
2022-12-01T04:32:53.714Z,54.08
2022-12-01T04:35:20.199Z,48.47
2022-12-01T04:37:46.670Z,54.15
2022-12-01T04:40:14.777Z,58.03
2022-12-01T04:42:41.238Z,64.28
2022-12-01T04:45:09.176Z,57.70
2022-12-01T04:47:35.633Z,45.33
2022-12-01T04:50:02.127Z,53.30
2022-12-01T04:52:33.736Z,46.70
2022-12-01T04:55:01.660Z,43.33
2022-12-01T04:57:29.498Z,59.42
2022-12-01T04:59:55.986Z,48.28
2022-12-01T05:02:22.577Z,55.38
2022-12-01T05:04:49.063Z,46.30
2022-12-01T05:07:15.533Z,43.55
2022-12-01T05:09:42.043Z,60.45
2022-12-01T05:12:08.529Z,51.55
2022-12-01T05:14:36.404Z,51.95
2022-12-01T05:17:02.884Z,61.50
2022-12-01T05:19:29.377Z,55.00
2022-12-01T05:21:55.874Z,67.78
2022-12-01T05:24:22.434Z,60.85
2022-12-01T05:26:48.984Z,55.70
2022-12-01T05:29:15.583Z,55.83
2022-12-01T05:31:45.216Z,51.38
2022-12-01T05:34:11.907Z,44.35
2022-12-01T05:36:38.383Z,70.82
2022-12-01T05:39:05.210Z,62.97
2022-12-01T05:41:31.747Z,59.75
2022-12-01T05:43:58.259Z,61.67
2022-12-01T05:46:24.827Z,48.55
2022-12-01T05:48:52.744Z,47.80
2022-12-01T05:51:19.288Z,51.78
2022-12-01T05:53:45.969Z,54.38
2022-12-01T05:56:12.757Z,52.03
2022-12-01T05:58:39.245Z,46.08
2022-12-01T06:01:06.162Z,63.15
2022-12-01T06:03:32.705Z,49.70
2022-12-01T06:06:00.545Z,70.55
2022-12-01T06:08:27.170Z,48.63
2022-12-01T06:10:53.690Z,55.30
2022-12-01T06:13:20.242Z,50.05
2022-12-01T06:15:55.830Z,57.38
2022-12-01T06:18:22.296Z,70.95
2022-12-01T06:20:48.808Z,55.05
2022-12-01T06:23:16.638Z,60.63
2022-12-01T06:25:43.462Z,47.35
2022-12-01T06:28:09.950Z,63.30
2022-12-01T06:30:36.432Z,54.55
2022-12-01T06:33:02.975Z,56.90
2022-12-01T06:35:29.482Z,69.05
2022-12-01T06:37:55.958Z,71.18
2022-12-01T06:40:23.803Z,53.70
2022-12-01T06:42:50.318Z,48.17
2022-12-01T06:45:17.000Z,53.85
2022-12-01T06:47:43.526Z,70.53
2022-12-01T06:50:10.628Z,61.90
2022-12-01T06:52:37.777Z,60.63
2022-12-01T06:55:05.357Z,61.60
2022-12-01T06:57:33.340Z,60.22
2022-12-01T07:00:00.083Z,49.10
2022-12-01T07:02:26.791Z,58.17
2022-12-01T07:04:53.316Z,68.57
2022-12-01T07:07:19.835Z,59.10
2022-12-01T07:09:46.720Z,47.30
2022-12-01T07:12:13.388Z,54.30
2022-12-01T07:14:41.222Z,51.05
2022-12-01T07:17:07.870Z,50.47
2022-12-01T07:19:34.455Z,57.10
2022-12-01T07:22:00.953Z,65.32
2022-12-01T07:24:27.438Z,41.30
2022-12-01T07:26:53.915Z,60.72
2022-12-01T07:29:20.411Z,51.70
2022-12-01T07:31:48.266Z,59.58
2022-12-01T07:34:14.906Z,65.13
2022-12-01T07:36:41.404Z,52.33
2022-12-01T07:39:08.956Z,47.35
2022-12-01T07:41:35.851Z,44.30
2022-12-01T07:44:02.429Z,61.85
2022-12-01T07:46:29.054Z,62.55
2022-12-01T07:48:57.660Z,60.05
2022-12-01T07:51:25.316Z,66.68
2022-12-01T07:53:53.722Z,55.95
2022-12-01T07:56:21.509Z,62.15
2022-12-01T07:58:48.401Z,54.47
2022-12-01T08:01:16.838Z,58.60
2022-12-01T08:03:43.443Z,58.58
2022-12-01T08:06:14.330Z,65.03
2022-12-01T08:08:41.233Z,53.80
2022-12-01T08:11:11.310Z,58.35
2022-12-01T08:13:49.201Z,52.45
2022-12-01T08:16:19.002Z,60.70
2022-12-01T08:18:46.133Z,55.72
2022-12-01T08:21:15.811Z,48.85
2022-12-01T08:23:43.033Z,47.15
2022-12-01T08:26:13.380Z,56.90
2022-12-01T08:28:40.255Z,64.70
2022-12-01T08:31:08.709Z,46.85
2022-12-01T08:33:35.290Z,42.40
2022-12-01T08:36:02.147Z,51.28
2022-12-01T08:38:39.002Z,44.60
2022-12-01T08:41:17.170Z,53.95
2022-12-01T08:43:59.840Z,72.53
2022-12-01T08:46:27.858Z,50.15
2022-12-01T08:48:55.203Z,48.42
2022-12-01T08:51:21.693Z,42.03
2022-12-01T08:53:50.430Z,65.30
2022-12-01T08:56:19.524Z,60.50
2022-12-01T08:58:46.103Z,72.38
2022-12-01T09:01:14.713Z,49.65
2022-12-01T09:03:42.293Z,68.43
2022-12-01T09:06:11.370Z,53.05
2022-12-01T09:08:38.040Z,52.78
2022-12-01T09:11:09.376Z,53.80
2022-12-01T09:13:37.350Z,60.22
2022-12-01T09:16:05.536Z,71.97
2022-12-01T09:18:32.385Z,62.10
2022-12-01T09:20:59.527Z,45.58
2022-12-01T09:23:26.803Z,43.92
2022-12-01T09:25:53.500Z,56.55
2022-12-01T09:28:21.370Z,49.95
2022-12-01T09:30:47.916Z,54.22
2022-12-01T09:33:14.431Z,55.70
2022-12-01T09:35:40.922Z,47.55
2022-12-01T09:38:07.511Z,52.42
2022-12-01T09:40:37.442Z,41.22
2022-12-01T09:43:11.565Z,56.45
2022-12-01T09:45:43.534Z,52.10
2022-12-01T09:48:19.496Z,57.75
2022-12-01T09:50:45.997Z,57.22
2022-12-01T09:53:18.319Z,52.65
2022-12-01T09:55:44.953Z,44.05
2022-12-01T09:58:17.414Z,41.75
2022-12-01T10:00:46.544Z,54.88
2022-12-01T10:03:24.730Z,52.60
2022-12-01T10:06:25.898Z,41.13
2022-12-01T10:08:50.269Z,50.70
2022-12-01T10:11:30.944Z,49.03
2022-12-01T10:13:58.689Z,59.90
2022-12-01T10:16:30.521Z,63.25
2022-12-01T10:19:01.616Z,44.42
2022-12-01T10:21:46.809Z,55.20
2022-12-01T10:24:27.068Z,53.55
2022-12-01T10:27:01.597Z,60.03
2022-12-01T10:29:34.715Z,64.10
2022-12-01T10:32:09.321Z,55.60
2022-12-01T10:34:40.138Z,37.08
2022-12-01T10:37:13.106Z,47.17
2022-12-01T10:39:42.694Z,69.53
2022-12-01T10:42:14.730Z,62.53
2022-12-01T10:44:42.092Z,60.63
2022-12-01T10:47:18.234Z,63.65
2022-12-01T10:49:44.789Z,56.42
2022-12-01T10:52:32.273Z,56.53
2022-12-01T10:54:59.639Z,43.88
2022-12-01T10:57:27.922Z,58.15
2022-12-01T10:59:57.756Z,61.10
2022-12-01T11:02:27.772Z,56.33
2022-12-01T11:04:57.530Z,67.85
2022-12-01T11:07:27.065Z,65.43
2022-12-01T11:10:13.746Z,46.28
2022-12-01T11:12:40.882Z,53.13
2022-12-01T11:15:16.924Z,51.78
2022-12-01T11:17:45.274Z,62.08
2022-12-01T11:20:31.358Z,49.97
2022-12-01T11:23:23.278Z,55.97
2022-12-01T11:25:58.943Z,45.22
2022-12-01T11:28:25.873Z,56.22
2022-12-01T11:30:56.767Z,58.30
2022-12-01T11:33:25.375Z,47.95
2022-12-01T11:35:52.139Z,44.47
2022-12-01T11:38:30.080Z,43.45
2022-12-01T11:40:58.542Z,48.67
2022-12-01T11:43:28.725Z,43.03
2022-12-01T11:45:58.707Z,46.35
2022-12-01T11:48:29.363Z,61.10
2022-12-01T11:51:10.736Z,52.13
2022-12-01T11:53:39.133Z,41.83
2022-12-01T11:56:18.116Z,38.70
2022-12-01T11:58:46.842Z,53.15
2022-12-01T12:01:28.296Z,45.50
2022-12-01T12:04:07.801Z,41.78
2022-12-01T12:06:43.214Z,56.78
2022-12-01T12:09:45.328Z,59.65
2022-12-01T12:12:24.333Z,40.60
2022-12-01T12:14:59.502Z,43.75
2022-12-01T12:17:43.809Z,61.95
2022-12-01T12:20:34.402Z,49.45
2022-12-01T12:23:16.748Z,44.20
2022-12-01T12:25:54.383Z,44.60
2022-12-01T12:28:36.913Z,48.58
2022-12-01T12:31:14.385Z,42.08
2022-12-01T12:34:19.941Z,46.15
2022-12-01T12:37:01.926Z,54.47
2022-12-01T12:39:44.733Z,49.97
2022-12-01T12:42:23.536Z,60.05
2022-12-01T12:44:56.122Z,55.17
2022-12-01T12:47:41.612Z,48.85
2022-12-01T12:50:19.336Z,46.83
2022-12-01T12:52:50.078Z,42.78
2022-12-01T12:55:22.995Z,48.78
2022-12-01T12:57:52.744Z,34.55
2022-12-01T13:00:22.144Z,50.08
2022-12-01T13:02:52.962Z,39.58
2022-12-01T13:05:24.851Z,49.72
2022-12-01T13:07:56.256Z,42.42
2022-12-01T13:10:28.206Z,41.25
2022-12-01T13:13:01.444Z,41.25
2022-12-01T13:15:29.786Z,46.88
2022-12-01T13:18:01.893Z,53.80
2022-12-01T13:20:29.890Z,47.47
2022-12-01T13:23:01.075Z,36.30
2022-12-01T13:25:37.281Z,48.58
2022-12-01T13:28:06.847Z,50.30
2022-12-01T13:30:33.440Z,48.75
2022-12-01T13:33:02.709Z,47.47
2022-12-01T13:35:31.900Z,50.85
2022-12-01T13:38:20.449Z,39.45
2022-12-01T13:40:47.513Z,40.50
2022-12-01T13:43:18.682Z,46.03
2022-12-01T13:45:46.070Z,34.70
2022-12-01T13:48:28.621Z,35.85
2022-12-01T13:50:57.983Z,51.45
2022-12-01T13:53:29.194Z,47.75
2022-12-01T13:58:41.389Z,40.22
2022-12-01T14:01:56.737Z,38.50
2022-12-01T14:04:32.380Z,44.28
2022-12-01T14:07:28.660Z,51.10
2022-12-01T14:10:07.751Z,49.88
2022-12-01T14:12:36.115Z,49.15
2022-12-01T14:15:20.475Z,40.28
2022-12-01T14:17:47.840Z,43.22
2022-12-01T14:20:21.051Z,55.08
2022-12-01T14:23:02.040Z,39.67
2022-12-01T14:25:31.122Z,43.75
2022-12-01T14:27:59.603Z,40.92
2022-12-01T14:31:05.004Z,47.30
2022-12-01T14:33:44.297Z,37.67
2022-12-01T14:36:20.955Z,36.97
2022-12-01T14:38:49.469Z,47.15
2022-12-01T14:41:22.787Z,40.88
2022-12-01T14:43:52.318Z,42.78
2022-12-01T14:46:25.967Z,46.55
2022-12-01T14:48:54.958Z,45.45
2022-12-01T14:51:26.708Z,65.43
2022-12-01T14:53:55.892Z,57.75
2022-12-01T14:56:25.540Z,57.42
2022-12-01T14:58:54.683Z,50.92
2022-12-01T15:01:22.122Z,53.85
2022-12-01T15:03:52.218Z,45.03
2022-12-01T15:06:20.720Z,50.17
2022-12-01T15:09:31.437Z,44.95
2022-12-01T15:11:54.274Z,40.03
2022-12-01T15:14:30.649Z,43.90
2022-12-01T15:16:57.828Z,45.03
2022-12-01T15:19:30.763Z,51.30
2022-12-01T15:21:57.454Z,44.45
2022-12-01T15:24:26.109Z,38.45
2022-12-01T15:27:00.517Z,44.45
2022-12-01T15:29:36.448Z,49.00
2022-12-01T15:32:06.909Z,45.20
2022-12-01T15:34:38.034Z,50.40
2022-12-01T15:37:07.215Z,51.95
2022-12-01T15:39:36.110Z,47.95
2022-12-01T15:42:04.674Z,46.75
2022-12-01T15:44:33.362Z,43.65
2022-12-01T15:47:20.096Z,46.05
2022-12-01T15:49:48.998Z,47.92
2022-12-01T15:52:15.621Z,45.30
2022-12-01T15:54:47.584Z,48.72
2022-12-01T15:57:18.487Z,36.92
2022-12-01T15:59:46.547Z,41.13
2022-12-01T16:02:25.730Z,56.17
2022-12-01T16:05:01.454Z,47.38
2022-12-01T16:08:04.584Z,45.72
2022-12-01T16:10:30.874Z,37.83
2022-12-01T16:13:46.102Z,39.10
2022-12-01T16:16:39.062Z,45.03
2022-12-01T16:19:23.735Z,43.63
2022-12-01T16:21:53.988Z,37.53
2022-12-01T16:24:23.597Z,40.85
2022-12-01T16:26:52.618Z,46.65
2022-12-01T16:29:20.353Z,36.53
2022-12-01T16:34:46.253Z,42.67
2022-12-01T16:37:13.824Z,43.10
2022-12-01T16:39:40.373Z,34.60
2022-12-01T16:42:07.012Z,33.67
2022-12-01T16:44:33.542Z,45.17
2022-12-01T16:47:01.402Z,45.67
2022-12-01T16:49:27.874Z,49.20
2022-12-01T16:51:56.779Z,48.95
2022-12-01T16:54:24.020Z,40.88
2022-12-01T16:56:50.637Z,36.60
2022-12-01T16:59:17.189Z,48.20
2022-12-01T17:01:43.781Z,42.17
2022-12-01T17:04:11.674Z,43.15
2022-12-01T17:06:38.371Z,34.40
2022-12-01T17:09:05.168Z,35.40
2022-12-01T17:11:32.435Z,31.83
2022-12-01T17:13:58.940Z,45.33
2022-12-01T17:16:25.579Z,33.30
2022-12-01T17:18:52.188Z,43.13
2022-12-01T17:21:20.102Z,37.60
2022-12-01T17:23:46.702Z,35.10
2022-12-01T17:26:16.295Z,43.22
2022-12-01T17:28:43.230Z,44.15
2022-12-01T17:31:10.128Z,37.47
2022-12-01T17:33:37.118Z,42.83
2022-12-01T17:36:05.806Z,39.70
2022-12-01T17:38:36.167Z,31.95
2022-12-01T17:41:05.052Z,36.15
2022-12-01T17:43:32.959Z,37.13
2022-12-01T17:45:59.632Z,31.98
2022-12-01T17:48:26.251Z,27.60
2022-12-01T17:50:52.863Z,33.83
2022-12-01T17:53:19.411Z,36.42
2022-12-01T17:55:47.302Z,33.50
2022-12-01T17:58:13.813Z,42.17
2022-12-01T18:00:40.384Z,48.60
2022-12-01T18:03:06.939Z,37.42
2022-12-01T18:05:33.681Z,33.53
2022-12-01T18:08:00.475Z,33.83
2022-12-01T18:10:27.076Z,40.90
2022-12-01T18:12:55.054Z,37.90
2022-12-01T18:15:21.668Z,35.83
2022-12-01T18:17:48.304Z,46.58
2022-12-01T18:20:14.967Z,54.40
2022-12-01T18:22:41.549Z,40.90
2022-12-01T18:25:08.600Z,36.05
2022-12-01T18:27:35.175Z,38.78
2022-12-01T18:30:04.260Z,35.95
2022-12-01T18:32:31.562Z,44.38
2022-12-01T18:34:58.231Z,38.03
2022-12-01T18:37:24.818Z,37.60
2022-12-01T18:39:51.554Z,34.45
2022-12-01T18:42:18.077Z,35.92
2022-12-01T18:44:44.660Z,36.28
2022-12-01T18:47:12.542Z,34.35
2022-12-01T18:49:39.155Z,35.85
2022-12-01T18:52:05.739Z,33.15
2022-12-01T18:54:32.342Z,39.22
2022-12-01T18:56:59.340Z,39.15
2022-12-01T18:59:25.954Z,42.75
2022-12-01T19:01:53.068Z,37.22
2022-12-01T19:04:21.050Z,39.15
2022-12-01T19:06:47.555Z,37.75
2022-12-01T19:09:15.015Z,36.28
2022-12-01T19:11:42.267Z,29.90
2022-12-01T19:14:13.316Z,44.42
2022-12-01T19:16:40.171Z,34.75
2022-12-01T19:19:06.800Z,35.95
2022-12-01T19:21:34.644Z,38.63
2022-12-01T19:24:01.196Z,46.70
2022-12-01T19:26:27.716Z,31.90
2022-12-01T19:28:54.237Z,38.10
2022-12-01T19:31:23.383Z,32.53
2022-12-01T19:33:50.060Z,49.47
2022-12-01T19:36:18.567Z,32.92
2022-12-01T19:38:47.092Z,47.42
2022-12-01T19:41:14.553Z,32.75
2022-12-01T19:43:42.093Z,39.33
2022-12-01T19:46:11.173Z,47.22
2022-12-01T19:48:37.811Z,39.72
2022-12-01T19:51:04.960Z,44.05
2022-12-01T19:53:33.769Z,40.45
2022-12-01T19:56:03.777Z,38.40
2022-12-01T19:58:32.966Z,43.75
2022-12-01T20:01:02.848Z,39.50
2022-12-01T20:03:29.379Z,36.75
2022-12-01T20:06:01.086Z,30.77
2022-12-01T20:08:27.576Z,38.45
2022-12-01T20:10:54.089Z,29.58
2022-12-01T20:13:21.938Z,31.95
2022-12-01T20:15:48.516Z,30.35
2022-12-01T20:18:15.000Z,34.20
2022-12-01T20:20:41.537Z,29.00
2022-12-01T20:23:08.044Z,36.55
2022-12-01T20:25:34.540Z,32.63
2022-12-01T20:28:01.773Z,30.75
2022-12-01T20:30:29.657Z,36.20
2022-12-01T20:32:56.195Z,36.17
2022-12-01T20:35:22.775Z,30.60
2022-12-01T20:37:49.246Z,29.90
2022-12-01T20:40:15.782Z,37.63
2022-12-01T20:42:43.396Z,30.33
2022-12-01T20:45:09.932Z,41.65
2022-12-01T20:47:37.797Z,32.25
2022-12-01T20:50:05.284Z,36.17
2022-12-01T20:52:31.763Z,29.23
2022-12-01T20:54:58.272Z,42.10
2022-12-01T20:57:24.794Z,25.85
2022-12-01T20:59:51.323Z,31.45
2022-12-01T21:02:17.985Z,31.48
2022-12-01T21:04:45.928Z,33.72
2022-12-01T21:07:12.425Z,36.47
2022-12-01T21:09:38.919Z,40.20
2022-12-01T21:12:12.565Z,34.83
2022-12-01T21:14:45.264Z,32.05
2022-12-01T21:17:23.649Z,36.53
2022-12-01T21:19:57.417Z,40.53
2022-12-01T21:22:25.016Z,34.22
2022-12-01T21:24:52.056Z,30.42
2022-12-01T21:28:16.376Z,38.17
2022-12-01T21:30:43.046Z,31.58
2022-12-01T21:33:20.521Z,36.83
2022-12-01T21:35:50.037Z,31.02
2022-12-01T21:38:21.750Z,34.15
2022-12-01T21:40:49.523Z,27.63
2022-12-01T21:43:20.156Z,33.15
2022-12-01T21:45:51.838Z,34.25
2022-12-01T21:48:20.958Z,43.05
2022-12-01T21:50:53.788Z,61.17
2022-12-01T21:53:22.053Z,37.22
2022-12-01T21:55:49.254Z,40.63
2022-12-01T21:58:23.620Z,37.30
2022-12-01T22:00:51.766Z,68.53
2022-12-01T22:03:29.941Z,26.55
2022-12-01T22:06:27.889Z,42.50
2022-12-01T22:08:49.920Z,34.97
2022-12-01T22:11:19.178Z,37.92
2022-12-01T22:13:51.741Z,45.85
2022-12-01T22:16:21.381Z,32.03
2022-12-01T22:18:53.549Z,35.72
2022-12-01T22:21:41.049Z,47.38
2022-12-01T22:24:23.171Z,32.47
2022-12-01T22:26:57.443Z,35.80
2022-12-01T22:29:31.216Z,40.20
2022-12-01T22:32:39.896Z,38.83
2022-12-01T22:35:23.960Z,31.40
2022-12-01T22:37:53.391Z,33.20
2022-12-01T22:40:32.834Z,31.40
2022-12-01T22:43:18.407Z,40.97
2022-12-01T22:45:49.700Z,34.78
2022-12-01T22:48:28.004Z,31.35
2022-12-01T22:50:58.292Z,34.97
2022-12-01T22:53:29.615Z,33.67
2022-12-01T22:55:59.862Z,31.52
2022-12-01T22:58:30.182Z,41.05
2022-12-01T23:01:02.392Z,45.90
2022-12-01T23:03:29.467Z,35.70
2022-12-01T23:05:57.589Z,40.35
2022-12-01T23:08:24.704Z,39.55
2022-12-01T23:10:52.064Z,39.20
2022-12-01T23:13:21.554Z,37.38
2022-12-01T23:15:51.271Z,28.92
2022-12-01T23:18:22.710Z,34.50
2022-12-01T23:20:51.534Z,39.03
2022-12-01T23:23:19.961Z,36.28
2022-12-01T23:25:49.187Z,39.10
2022-12-01T23:28:16.614Z,35.78
2022-12-01T23:30:45.984Z,35.42
2022-12-01T23:33:20.453Z,41.10
2022-12-01T23:35:51.755Z,43.03
2022-12-01T23:38:21.165Z,45.03
2022-12-01T23:40:50.154Z,41.97
2022-12-01T23:43:20.376Z,31.60
2022-12-01T23:45:49.393Z,46.72
2022-12-01T23:48:21.915Z,38.30
2022-12-01T23:50:52.620Z,38.47
2022-12-01T23:53:24.834Z,45.10
2022-12-01T23:55:51.923Z,50.65
2022-12-01T23:58:19.217Z,36.65
